Lanai Airport Lanai City US
ICAO: PHNY
IATA:
Category: Medium
Scheduled Services:

Elevation: 1308 ft
TransAlt. 0 ft.

Airport Communications:
ASOS:118.375
HONOLULU CNTR:119.3
CTAF:122.9
RDO:117.7

PHNY Zoom In..

If you have problems with the map follow the link
https://www.worldairports.se/pages/airport.php?
ICAO=PHNY

Runways:

(A) RW 03 length 5001 ft width 150 ft
ILS 111.10 / hdg 33

(B) RW 21 length 5001 ft width 150 ft
---- / hdg 213

Location; PHNY
Day. 07 / Time. 08.56 Zulu
* Altimeter: 30.02
* Temperature: 6/° c. 42.8°f.
* Wind from: 090° Speed 06 kn.
Dewpoint: //° c.
Visibility: 10 Statute Miles.

PHNY 070856Z AUTO 09006KT 10SM 19/19 A3002 RMK AO2 SLP145 6//// T01890189 $


Wind From 090°
Speed 06 kn.

 
 
jpsmedia worldairports.se 2019   terms of use